sensor_id;sensor_type;location;lat;lon;timestamp;P1;durP1;ratioP1;P2;durP2;ratioP2
54517;SDS011;40423;53.176;6.002;2022-09-12T00:02:19;9.65;;;8.65;;
54517;SDS011;40423;53.176;6.002;2022-09-12T00:04:45;8.52;;;7.68;;
54517;SDS011;40423;53.176;6.002;2022-09-12T00:07:11;11.85;;;10.73;;
54517;SDS011;40423;53.176;6.002;2022-09-12T00:09:37;11.98;;;10.77;;
54517;SDS011;40423;53.176;6.002;2022-09-12T00:12:03;10.40;;;9.32;;
54517;SDS011;40423;53.176;6.002;2022-09-12T00:14:29;9.65;;;8.73;;
54517;SDS011;40423;53.176;6.002;2022-09-12T00:16:58;10.68;;;8.15;;
54517;SDS011;40423;53.176;6.002;2022-09-12T00:19:25;8.45;;;7.55;;
54517;SDS011;40423;53.176;6.002;2022-09-12T00:21:52;8.82;;;7.35;;
54517;SDS011;40423;53.176;6.002;2022-09-12T00:24:18;6.90;;;6.30;;
54517;SDS011;40423;53.176;6.002;2022-09-12T00:26:44;7.80;;;7.07;;
54517;SDS011;40423;53.176;6.002;2022-09-12T00:29:13;8.55;;;7.75;;
54517;SDS011;40423;53.176;6.002;2022-09-12T00:31:41;8.90;;;8.07;;
54517;SDS011;40423;53.176;6.002;2022-09-12T00:34:08;7.55;;;6.70;;
54517;SDS011;40423;53.176;6.002;2022-09-12T00:36:34;7.82;;;7.13;;
54517;SDS011;40423;53.176;6.002;2022-09-12T00:39:00;7.97;;;7.28;;
54517;SDS011;40423;53.176;6.002;2022-09-12T00:41:28;8.35;;;7.47;;
54517;SDS011;40423;53.176;6.002;2022-09-12T00:43:59;9.05;;;8.15;;
54517;SDS011;40423;53.176;6.002;2022-09-12T00:51:41;7.93;;;7.15;;
54517;SDS011;40423;53.176;6.002;2022-09-12T00:54:11;8.27;;;7.47;;
54517;SDS011;40423;53.176;6.002;2022-09-12T00:56:40;9.70;;;8.43;;
54517;SDS011;40423;53.176;6.002;2022-09-12T00:59:23;9.88;;;8.90;;
54517;SDS011;40423;53.176;6.002;2022-09-12T01:01:53;8.13;;;7.43;;
54517;SDS011;40423;53.176;6.002;2022-09-12T01:04:21;9.43;;;8.07;;
54517;SDS011;40423;53.176;6.002;2022-09-12T01:06:49;8.52;;;7.65;;
54517;SDS011;40423;53.176;6.002;2022-09-12T01:09:18;9.73;;;8.73;;
54517;SDS011;40423;53.176;6.002;2022-09-12T01:11:45;7.82;;;7.13;;
54517;SDS011;40423;53.176;6.002;2022-09-12T01:14:13;8.93;;;7.90;;
54517;SDS011;40423;53.176;6.002;2022-09-12T01:16:40;10.70;;;9.25;;
54517;SDS011;40423;53.176;6.002;2022-09-12T01:27:45;8.70;;;7.90;;
54517;SDS011;40423;53.176;6.002;2022-09-12T01:33:24;10.13;;;9.18;;
54517;SDS011;40423;53.176;6.002;2022-09-12T01:39:04;8.77;;;7.97;;
54517;SDS011;40423;53.176;6.002;2022-09-12T01:44:50;8.73;;;7.82;;
54517;SDS011;40423;53.176;6.002;2022-09-12T01:47:22;9.90;;;8.95;;
54517;SDS011;40423;53.176;6.002;2022-09-12T01:50:07;9.60;;;8.60;;
54517;SDS011;40423;53.176;6.002;2022-09-12T01:52:43;11.27;;;10.15;;
54517;SDS011;40423;53.176;6.002;2022-09-12T01:55:50;12.07;;;10.85;;
54517;SDS011;40423;53.176;6.002;2022-09-12T02:01:02;10.88;;;8.93;;
54517;SDS011;40423;53.176;6.002;2022-09-12T02:03:48;10.68;;;9.57;;
54517;SDS011;40423;53.176;6.002;2022-09-12T02:06:26;10.55;;;9.05;;
54517;SDS011;40423;53.176;6.002;2022-09-12T02:09:02;9.95;;;9.02;;
54517;SDS011;40423;53.176;6.002;2022-09-12T02:11:37;10.20;;;8.70;;
54517;SDS011;40423;53.176;6.002;2022-09-12T02:14:08;10.50;;;8.82;;
54517;SDS011;40423;53.176;6.002;2022-09-12T02:16:58;9.98;;;9.02;;
54517;SDS011;40423;53.176;6.002;2022-09-12T02:19:29;11.40;;;9.32;;
54517;SDS011;40423;53.176;6.002;2022-09-12T02:22:01;13.50;;;11.57;;
54517;SDS011;40423;53.176;6.002;2022-09-12T02:24:30;11.70;;;10.60;;
54517;SDS011;40423;53.176;6.002;2022-09-12T02:27:02;12.73;;;11.52;;
54517;SDS011;40423;53.176;6.002;2022-09-12T02:29:36;10.23;;;9.15;;
54517;SDS011;40423;53.176;6.002;2022-09-12T02:32:07;10.85;;;9.77;;
54517;SDS011;40423;53.176;6.002;2022-09-12T02:40:50;11.68;;;10.00;;
54517;SDS011;40423;53.176;6.002;2022-09-12T02:43:16;13.48;;;12.07;;
54517;SDS011;40423;53.176;6.002;2022-09-12T02:45:42;14.07;;;12.63;;
54517;SDS011;40423;53.176;6.002;2022-09-12T02:48:15;12.65;;;11.35;;
54517;SDS011;40423;53.176;6.002;2022-09-12T02:50:45;16.58;;;12.65;;
54517;SDS011;40423;53.176;6.002;2022-09-12T02:53:11;14.77;;;13.05;;
54517;SDS011;40423;53.176;6.002;2022-09-12T02:55:37;13.07;;;11.70;;
54517;SDS011;40423;53.176;6.002;2022-09-12T02:58:06;12.85;;;11.55;;
54517;SDS011;40423;53.176;6.002;2022-09-12T03:01:22;12.73;;;11.48;;
54517;SDS011;40423;53.176;6.002;2022-09-12T03:03:45;14.88;;;12.85;;
54517;SDS011;40423;53.176;6.002;2022-09-12T03:06:17;12.68;;;11.35;;
54517;SDS011;40423;53.176;6.002;2022-09-12T03:09:33;16.27;;;13.57;;
54517;SDS011;40423;53.176;6.002;2022-09-12T03:12:16;18.05;;;15.70;;
54517;SDS011;40423;53.176;6.002;2022-09-12T03:23:43;19.10;;;16.95;;
54517;SDS011;40423;53.176;6.002;2022-09-12T03:26:33;19.60;;;17.50;;
54517;SDS011;40423;53.176;6.002;2022-09-12T03:31:50;24.33;;;20.42;;
54517;SDS011;40423;53.176;6.002;2022-09-12T03:34:18;23.05;;;19.73;;
54517;SDS011;40423;53.176;6.002;2022-09-12T03:36:45;22.88;;;19.88;;
54517;SDS011;40423;53.176;6.002;2022-09-12T03:39:11;24.08;;;20.85;;
54517;SDS011;40423;53.176;6.002;2022-09-12T03:41:37;21.83;;;18.83;;
54517;SDS011;40423;53.176;6.002;2022-09-12T03:44:03;20.60;;;18.08;;
54517;SDS011;40423;53.176;6.002;2022-09-12T03:46:29;24.45;;;20.45;;
54517;SDS011;40423;53.176;6.002;2022-09-12T03:48:55;27.50;;;20.75;;
54517;SDS011;40423;53.176;6.002;2022-09-12T03:51:20;24.17;;;20.58;;
54517;SDS011;40423;53.176;6.002;2022-09-12T03:53:46;22.75;;;19.30;;
54517;SDS011;40423;53.176;6.002;2022-09-12T03:56:12;25.90;;;23.05;;
54517;SDS011;40423;53.176;6.002;2022-09-12T03:58:39;27.17;;;21.67;;
54517;SDS011;40423;53.176;6.002;2022-09-12T04:01:15;24.63;;;21.75;;
54517;SDS011;40423;53.176;6.002;2022-09-12T04:03:43;25.30;;;21.40;;
54517;SDS011;40423;53.176;6.002;2022-09-12T04:06:11;27.55;;;23.40;;
54517;SDS011;40423;53.176;6.002;2022-09-12T04:08:39;26.40;;;23.42;;
54517;SDS011;40423;53.176;6.002;2022-09-12T04:11:10;22.08;;;19.77;;
54517;SDS011;40423;53.176;6.002;2022-09-12T04:13:38;26.45;;;22.85;;
54517;SDS011;40423;53.176;6.002;2022-09-12T04:16:05;24.05;;;21.33;;
54517;SDS011;40423;53.176;6.002;2022-09-12T04:18:31;28.83;;;24.23;;
54517;SDS011;40423;53.176;6.002;2022-09-12T04:20:57;26.50;;;21.95;;
54517;SDS011;40423;53.176;6.002;2022-09-12T04:23:27;26.50;;;21.75;;
54517;SDS011;40423;53.176;6.002;2022-09-12T04:25:53;27.65;;;23.48;;
54517;SDS011;40423;53.176;6.002;2022-09-12T04:28:20;29.13;;;25.60;;
54517;SDS011;40423;53.176;6.002;2022-09-12T04:30:46;28.98;;;24.75;;
54517;SDS011;40423;53.176;6.002;2022-09-12T04:33:12;25.95;;;22.40;;
54517;SDS011;40423;53.176;6.002;2022-09-12T04:35:38;31.27;;;26.40;;
54517;SDS011;40423;53.176;6.002;2022-09-12T04:38:05;28.33;;;25.33;;
54517;SDS011;40423;53.176;6.002;2022-09-12T04:40:31;26.83;;;22.92;;
54517;SDS011;40423;53.176;6.002;2022-09-12T04:42:57;31.80;;;25.58;;
54517;SDS011;40423;53.176;6.002;2022-09-12T04:45:23;28.73;;;25.10;;
54517;SDS011;40423;53.176;6.002;2022-09-12T04:47:49;29.25;;;25.70;;
54517;SDS011;40423;53.176;6.002;2022-09-12T04:50:15;31.38;;;25.60;;
54517;SDS011;40423;53.176;6.002;2022-09-12T04:52:41;26.73;;;23.73;;
54517;SDS011;40423;53.176;6.002;2022-09-12T04:55:07;28.00;;;24.20;;
54517;SDS011;40423;53.176;6.002;2022-09-12T04:57:34;26.08;;;23.35;;
54517;SDS011;40423;53.176;6.002;2022-09-12T05:00:00;29.00;;;24.58;;
54517;SDS011;40423;53.176;6.002;2022-09-12T05:02:26;27.85;;;23.88;;
54517;SDS011;40423;53.176;6.002;2022-09-12T05:04:53;26.27;;;22.70;;
54517;SDS011;40423;53.176;6.002;2022-09-12T05:07:18;29.33;;;25.63;;
54517;SDS011;40423;53.176;6.002;2022-09-12T05:09:44;27.08;;;23.27;;
54517;SDS011;40423;53.176;6.002;2022-09-12T05:12:10;31.38;;;26.08;;
54517;SDS011;40423;53.176;6.002;2022-09-12T05:14:36;30.23;;;25.60;;
54517;SDS011;40423;53.176;6.002;2022-09-12T05:17:02;30.42;;;25.77;;
54517;SDS011;40423;53.176;6.002;2022-09-12T05:19:30;29.63;;;26.42;;
54517;SDS011;40423;53.176;6.002;2022-09-12T05:21:56;32.13;;;26.23;;
54517;SDS011;40423;53.176;6.002;2022-09-12T05:24:23;29.35;;;26.17;;
54517;SDS011;40423;53.176;6.002;2022-09-12T05:26:49;31.05;;;26.55;;
54517;SDS011;40423;53.176;6.002;2022-09-12T05:29:14;28.70;;;24.58;;
54517;SDS011;40423;53.176;6.002;2022-09-12T05:31:40;28.58;;;23.40;;
54517;SDS011;40423;53.176;6.002;2022-09-12T05:34:06;30.33;;;26.17;;
54517;SDS011;40423;53.176;6.002;2022-09-12T05:36:34;33.05;;;26.52;;
54517;SDS011;40423;53.176;6.002;2022-09-12T05:39:01;32.13;;;26.10;;
54517;SDS011;40423;53.176;6.002;2022-09-12T05:41:28;31.00;;;25.70;;
54517;SDS011;40423;53.176;6.002;2022-09-12T05:43:56;30.05;;;25.08;;
54517;SDS011;40423;53.176;6.002;2022-09-12T05:46:24;32.13;;;26.38;;
54517;SDS011;40423;53.176;6.002;2022-09-12T05:48:52;30.45;;;26.27;;
54517;SDS011;40423;53.176;6.002;2022-09-12T05:51:30;28.40;;;25.15;;
54517;SDS011;40423;53.176;6.002;2022-09-12T05:53:58;30.50;;;24.55;;
54517;SDS011;40423;53.176;6.002;2022-09-12T05:58:54;30.73;;;27.20;;
54517;SDS011;40423;53.176;6.002;2022-09-12T06:01:21;30.65;;;26.60;;
54517;SDS011;40423;53.176;6.002;2022-09-12T06:03:49;31.92;;;26.48;;
54517;SDS011;40423;53.176;6.002;2022-09-12T06:06:17;30.20;;;25.98;;
54517;SDS011;40423;53.176;6.002;2022-09-12T06:08:46;30.60;;;24.30;;
54517;SDS011;40423;53.176;6.002;2022-09-12T06:11:15;33.45;;;24.52;;
54517;SDS011;40423;53.176;6.002;2022-09-12T06:13:48;34.35;;;27.20;;
54517;SDS011;40423;53.176;6.002;2022-09-12T06:16:18;32.70;;;26.38;;
54517;SDS011;40423;53.176;6.002;2022-09-12T06:18:50;32.70;;;28.10;;
54517;SDS011;40423;53.176;6.002;2022-09-12T06:21:18;34.40;;;28.27;;
54517;SDS011;40423;53.176;6.002;2022-09-12T06:23:44;32.80;;;27.98;;
54517;SDS011;40423;53.176;6.002;2022-09-12T06:26:11;33.60;;;27.17;;
54517;SDS011;40423;53.176;6.002;2022-09-12T06:28:38;32.60;;;27.15;;
54517;SDS011;40423;53.176;6.002;2022-09-12T06:31:07;35.38;;;27.45;;
54517;SDS011;40423;53.176;6.002;2022-09-12T06:33:35;34.10;;;27.67;;
54517;SDS011;40423;53.176;6.002;2022-09-12T06:36:07;34.85;;;27.95;;
54517;SDS011;40423;53.176;6.002;2022-09-12T06:38:35;38.15;;;28.92;;
54517;SDS011;40423;53.176;6.002;2022-09-12T06:41:03;36.03;;;28.27;;
54517;SDS011;40423;53.176;6.002;2022-09-12T06:43:31;30.30;;;25.98;;
54517;SDS011;40423;53.176;6.002;2022-09-12T06:45:57;34.83;;;28.17;;
54517;SDS011;40423;53.176;6.002;2022-09-12T06:48:23;40.78;;;30.13;;
54517;SDS011;40423;53.176;6.002;2022-09-12T06:50:59;37.90;;;29.77;;
54517;SDS011;40423;53.176;6.002;2022-09-12T06:53:30;37.47;;;28.75;;
54517;SDS011;40423;53.176;6.002;2022-09-12T06:56:04;36.33;;;29.83;;
54517;SDS011;40423;53.176;6.002;2022-09-12T06:58:31;40.60;;;30.98;;
54517;SDS011;40423;53.176;6.002;2022-09-12T07:01:04;40.88;;;31.73;;
54517;SDS011;40423;53.176;6.002;2022-09-12T07:03:34;47.60;;;34.03;;
54517;SDS011;40423;53.176;6.002;2022-09-12T07:06:01;46.22;;;33.65;;
54517;SDS011;40423;53.176;6.002;2022-09-12T07:08:32;44.42;;;34.78;;
54517;SDS011;40423;53.176;6.002;2022-09-12T07:10:59;49.67;;;35.20;;
54517;SDS011;40423;53.176;6.002;2022-09-12T07:13:32;44.78;;;34.17;;
54517;SDS011;40423;53.176;6.002;2022-09-12T07:16:02;46.72;;;34.47;;
54517;SDS011;40423;53.176;6.002;2022-09-12T07:18:29;53.72;;;39.10;;
54517;SDS011;40423;53.176;6.002;2022-09-12T07:20:55;45.95;;;33.83;;
54517;SDS011;40423;53.176;6.002;2022-09-12T07:23:24;45.95;;;35.53;;
54517;SDS011;40423;53.176;6.002;2022-09-12T07:25:57;52.03;;;36.70;;
54517;SDS011;40423;53.176;6.002;2022-09-12T07:28:28;47.83;;;36.42;;
54517;SDS011;40423;53.176;6.002;2022-09-12T07:30:55;51.90;;;38.00;;
54517;SDS011;40423;53.176;6.002;2022-09-12T07:33:22;46.33;;;36.22;;
54517;SDS011;40423;53.176;6.002;2022-09-12T07:35:51;55.90;;;36.88;;
54517;SDS011;40423;53.176;6.002;2022-09-12T07:38:18;49.67;;;36.75;;
54517;SDS011;40423;53.176;6.002;2022-09-12T07:40:47;54.42;;;39.55;;
54517;SDS011;40423;53.176;6.002;2022-09-12T07:43:13;55.05;;;38.42;;
54517;SDS011;40423;53.176;6.002;2022-09-12T07:45:39;52.38;;;38.50;;
54517;SDS011;40423;53.176;6.002;2022-09-12T07:48:07;53.83;;;40.53;;
54517;SDS011;40423;53.176;6.002;2022-09-12T07:50:33;52.20;;;37.67;;
54517;SDS011;40423;53.176;6.002;2022-09-12T07:53:01;54.25;;;39.30;;
54517;SDS011;40423;53.176;6.002;2022-09-12T07:55:28;59.90;;;41.50;;
54517;SDS011;40423;53.176;6.002;2022-09-12T07:57:54;58.08;;;41.10;;
54517;SDS011;40423;53.176;6.002;2022-09-12T08:00:19;58.10;;;40.95;;
54517;SDS011;40423;53.176;6.002;2022-09-12T08:02:55;55.60;;;40.25;;
54517;SDS011;40423;53.176;6.002;2022-09-12T08:05:20;54.75;;;41.33;;
54517;SDS011;40423;53.176;6.002;2022-09-12T08:07:47;57.40;;;41.90;;
54517;SDS011;40423;53.176;6.002;2022-09-12T08:10:13;57.70;;;41.40;;
54517;SDS011;40423;53.176;6.002;2022-09-12T08:12:40;53.55;;;39.85;;
54517;SDS011;40423;53.176;6.002;2022-09-12T08:15:06;53.30;;;37.40;;
54517;SDS011;40423;53.176;6.002;2022-09-12T08:17:32;51.15;;;36.42;;
54517;SDS011;40423;53.176;6.002;2022-09-12T08:19:58;50.63;;;37.38;;
54517;SDS011;40423;53.176;6.002;2022-09-12T08:22:24;54.88;;;40.72;;
54517;SDS011;40423;53.176;6.002;2022-09-12T08:24:50;52.70;;;39.63;;
54517;SDS011;40423;53.176;6.002;2022-09-12T08:27:15;54.33;;;39.95;;
54517;SDS011;40423;53.176;6.002;2022-09-12T08:29:41;57.40;;;43.75;;
54517;SDS011;40423;53.176;6.002;2022-09-12T08:32:07;53.55;;;40.67;;
54517;SDS011;40423;53.176;6.002;2022-09-12T08:34:33;54.55;;;39.90;;
54517;SDS011;40423;53.176;6.002;2022-09-12T08:36:59;54.35;;;40.05;;
54517;SDS011;40423;53.176;6.002;2022-09-12T08:39:24;55.50;;;42.63;;
54517;SDS011;40423;53.176;6.002;2022-09-12T08:41:57;52.78;;;40.28;;
54517;SDS011;40423;53.176;6.002;2022-09-12T08:47:29;58.42;;;45.20;;
54517;SDS011;40423;53.176;6.002;2022-09-12T08:52:30;59.35;;;44.28;;
54517;SDS011;40423;53.176;6.002;2022-09-12T08:55:02;60.15;;;44.42;;
54517;SDS011;40423;53.176;6.002;2022-09-12T08:57:31;58.03;;;42.97;;
54517;SDS011;40423;53.176;6.002;2022-09-12T08:59:57;60.05;;;43.15;;
54517;SDS011;40423;53.176;6.002;2022-09-12T09:05:18;67.90;;;46.10;;
54517;SDS011;40423;53.176;6.002;2022-09-12T09:16:32;60.25;;;43.05;;
54517;SDS011;40423;53.176;6.002;2022-09-12T09:19:02;57.85;;;43.55;;
54517;SDS011;40423;53.176;6.002;2022-09-12T09:21:39;54.00;;;39.08;;
54517;SDS011;40423;53.176;6.002;2022-09-12T09:24:12;58.88;;;43.10;;
54517;SDS011;40423;53.176;6.002;2022-09-12T09:26:44;59.50;;;41.53;;
54517;SDS011;40423;53.176;6.002;2022-09-12T09:29:23;53.28;;;40.38;;
54517;SDS011;40423;53.176;6.002;2022-09-12T09:31:58;52.83;;;39.65;;
54517;SDS011;40423;53.176;6.002;2022-09-12T09:34:28;54.53;;;37.75;;
54517;SDS011;40423;53.176;6.002;2022-09-12T09:37:03;50.53;;;36.90;;
54517;SDS011;40423;53.176;6.002;2022-09-12T09:39:44;49.95;;;36.40;;
54517;SDS011;40423;53.176;6.002;2022-09-12T09:45:02;47.50;;;34.00;;
54517;SDS011;40423;53.176;6.002;2022-09-12T09:47:38;44.65;;;31.02;;
54517;SDS011;40423;53.176;6.002;2022-09-12T09:50:04;45.28;;;31.90;;
54517;SDS011;40423;53.176;6.002;2022-09-12T09:52:30;41.10;;;31.30;;
54517;SDS011;40423;53.176;6.002;2022-09-12T09:54:58;44.83;;;30.92;;
54517;SDS011;40423;53.176;6.002;2022-09-12T10:03:47;37.85;;;26.80;;
54517;SDS011;40423;53.176;6.002;2022-09-12T10:05:56;36.72;;;24.83;;
54517;SDS011;40423;53.176;6.002;2022-09-12T10:08:34;34.00;;;24.95;;
54517;SDS011;40423;53.176;6.002;2022-09-12T10:11:02;32.38;;;23.45;;
54517;SDS011;40423;53.176;6.002;2022-09-12T10:13:50;31.98;;;22.33;;
54517;SDS011;40423;53.176;6.002;2022-09-12T10:18:50;22.33;;;16.13;;
54517;SDS011;40423;53.176;6.002;2022-09-12T10:26:50;19.88;;;16.35;;
54517;SDS011;40423;53.176;6.002;2022-09-12T10:29:21;22.48;;;16.48;;
54517;SDS011;40423;53.176;6.002;2022-09-12T10:31:54;23.73;;;17.50;;
54517;SDS011;40423;53.176;6.002;2022-09-12T10:34:42;26.08;;;18.80;;
54517;SDS011;40423;53.176;6.002;2022-09-12T10:39:55;23.95;;;18.10;;
54517;SDS011;40423;53.176;6.002;2022-09-12T10:47:51;24.73;;;19.60;;
54517;SDS011;40423;53.176;6.002;2022-09-12T10:50:22;23.17;;;18.40;;
54517;SDS011;40423;53.176;6.002;2022-09-12T10:52:52;23.33;;;17.20;;
54517;SDS011;40423;53.176;6.002;2022-09-12T10:55:24;30.25;;;18.00;;
54517;SDS011;40423;53.176;6.002;2022-09-12T11:00:24;26.08;;;16.90;;
54517;SDS011;40423;53.176;6.002;2022-09-12T11:05:54;26.10;;;16.60;;
54517;SDS011;40423;53.176;6.002;2022-09-12T11:10:59;22.58;;;16.30;;
54517;SDS011;40423;53.176;6.002;2022-09-12T11:21:43;18.50;;;12.95;;
54517;SDS011;40423;53.176;6.002;2022-09-12T11:24:25;16.85;;;12.82;;
54517;SDS011;40423;53.176;6.002;2022-09-12T11:27:17;16.50;;;12.73;;
54517;SDS011;40423;53.176;6.002;2022-09-12T11:30:02;20.92;;;15.10;;
54517;SDS011;40423;53.176;6.002;2022-09-12T11:32:35;16.63;;;13.02;;
54517;SDS011;40423;53.176;6.002;2022-09-12T11:37:47;18.30;;;14.00;;
54517;SDS011;40423;53.176;6.002;2022-09-12T11:43:30;19.13;;;14.13;;
54517;SDS011;40423;53.176;6.002;2022-09-12T11:45:52;17.13;;;13.15;;
54517;SDS011;40423;53.176;6.002;2022-09-12T11:50:55;19.55;;;13.30;;
54517;SDS011;40423;53.176;6.002;2022-09-12T11:53:28;16.85;;;13.60;;
54517;SDS011;40423;53.176;6.002;2022-09-12T11:56:01;17.48;;;12.82;;
54517;SDS011;40423;53.176;6.002;2022-09-12T11:58:41;15.90;;;11.88;;
54517;SDS011;40423;53.176;6.002;2022-09-12T12:01:13;15.43;;;11.10;;
54517;SDS011;40423;53.176;6.002;2022-09-12T12:03:44;14.02;;;11.15;;
54517;SDS011;40423;53.176;6.002;2022-09-12T12:06:14;15.55;;;12.35;;
54517;SDS011;40423;53.176;6.002;2022-09-12T12:08:43;13.38;;;11.55;;
54517;SDS011;40423;53.176;6.002;2022-09-12T12:11:11;14.75;;;11.30;;
54517;SDS011;40423;53.176;6.002;2022-09-12T12:13:54;11.23;;;9.88;;
54517;SDS011;40423;53.176;6.002;2022-09-12T12:16:37;15.90;;;12.55;;
54517;SDS011;40423;53.176;6.002;2022-09-12T12:44:55;14.63;;;11.52;;
54517;SDS011;40423;53.176;6.002;2022-09-12T12:47:21;12.27;;;10.48;;
54517;SDS011;40423;53.176;6.002;2022-09-12T12:49:55;13.02;;;10.05;;
54517;SDS011;40423;53.176;6.002;2022-09-12T12:52:31;11.80;;;8.75;;
54517;SDS011;40423;53.176;6.002;2022-09-12T12:55:12;9.85;;;7.38;;
54517;SDS011;40423;53.176;6.002;2022-09-12T12:57:55;7.63;;;6.22;;
54517;SDS011;40423;53.176;6.002;2022-09-12T13:02:58;9.60;;;7.43;;
54517;SDS011;40423;53.176;6.002;2022-09-12T13:05:29;9.27;;;6.80;;
54517;SDS011;40423;53.176;6.002;2022-09-12T13:08:07;8.65;;;6.20;;
54517;SDS011;40423;53.176;6.002;2022-09-12T13:10:52;12.55;;;8.73;;
54517;SDS011;40423;53.176;6.002;2022-09-12T13:13:23;10.82;;;9.73;;
54517;SDS011;40423;53.176;6.002;2022-09-12T13:16:10;9.90;;;8.40;;
54517;SDS011;40423;53.176;6.002;2022-09-12T13:18:53;7.38;;;6.30;;
54517;SDS011;40423;53.176;6.002;2022-09-12T13:21:20;6.68;;;4.82;;
54517;SDS011;40423;53.176;6.002;2022-09-12T13:24:00;5.45;;;4.13;;
54517;SDS011;40423;53.176;6.002;2022-09-12T13:26:40;5.95;;;3.85;;
54517;SDS011;40423;53.176;6.002;2022-09-12T13:29:08;5.50;;;4.10;;
54517;SDS011;40423;53.176;6.002;2022-09-12T13:31:34;6.50;;;4.10;;
54517;SDS011;40423;53.176;6.002;2022-09-12T13:34:03;5.20;;;3.83;;
54517;SDS011;40423;53.176;6.002;2022-09-12T13:47:47;8.65;;;6.70;;
54517;SDS011;40423;53.176;6.002;2022-09-12T13:50:16;7.72;;;6.45;;
54517;SDS011;40423;53.176;6.002;2022-09-12T13:52:55;7.68;;;6.43;;
54517;SDS011;40423;53.176;6.002;2022-09-12T13:55:35;7.28;;;5.40;;
54517;SDS011;40423;53.176;6.002;2022-09-12T13:58:05;11.15;;;6.28;;
54517;SDS011;40423;53.176;6.002;2022-09-12T14:00:40;8.88;;;6.25;;
54517;SDS011;40423;53.176;6.002;2022-09-12T14:06:11;10.23;;;6.80;;
54517;SDS011;40423;53.176;6.002;2022-09-12T14:08:38;9.52;;;7.40;;
54517;SDS011;40423;53.176;6.002;2022-09-12T14:11:08;9.55;;;7.57;;
54517;SDS011;40423;53.176;6.002;2022-09-12T14:13:36;9.93;;;8.52;;
54517;SDS011;40423;53.176;6.002;2022-09-12T14:16:03;9.25;;;8.23;;
54517;SDS011;40423;53.176;6.002;2022-09-12T14:18:32;10.18;;;7.97;;
54517;SDS011;40423;53.176;6.002;2022-09-12T14:21:08;10.63;;;8.60;;
54517;SDS011;40423;53.176;6.002;2022-09-12T14:23:40;11.30;;;9.55;;
54517;SDS011;40423;53.176;6.002;2022-09-12T14:26:09;13.15;;;9.70;;
54517;SDS011;40423;53.176;6.002;2022-09-12T14:28:43;12.50;;;8.90;;
54517;SDS011;40423;53.176;6.002;2022-09-12T14:33:53;44.47;;;21.65;;
54517;SDS011;40423;53.176;6.002;2022-09-12T14:38:59;12.18;;;10.00;;
54517;SDS011;40423;53.176;6.002;2022-09-12T14:41:28;13.20;;;10.02;;
54517;SDS011;40423;53.176;6.002;2022-09-12T14:43:58;10.55;;;8.95;;
54517;SDS011;40423;53.176;6.002;2022-09-12T14:46:36;9.88;;;8.88;;
54517;SDS011;40423;53.176;6.002;2022-09-12T14:49:06;10.38;;;9.00;;
54517;SDS011;40423;53.176;6.002;2022-09-12T14:51:47;12.63;;;9.65;;
54517;SDS011;40423;53.176;6.002;2022-09-12T14:57:00;15.05;;;11.02;;
54517;SDS011;40423;53.176;6.002;2022-09-12T15:02:37;12.10;;;10.48;;
54517;SDS011;40423;53.176;6.002;2022-09-12T15:07:41;13.02;;;9.70;;
54517;SDS011;40423;53.176;6.002;2022-09-12T15:10:25;13.60;;;10.95;;
54517;SDS011;40423;53.176;6.002;2022-09-12T15:15:30;12.68;;;9.35;;
54517;SDS011;40423;53.176;6.002;2022-09-12T15:17:56;9.85;;;8.18;;
54517;SDS011;40423;53.176;6.002;2022-09-12T15:20:22;9.65;;;8.65;;
54517;SDS011;40423;53.176;6.002;2022-09-12T15:22:48;12.52;;;9.13;;
54517;SDS011;40423;53.176;6.002;2022-09-12T15:25:14;9.95;;;8.65;;
54517;SDS011;40423;53.176;6.002;2022-09-12T15:27:40;9.82;;;8.60;;
54517;SDS011;40423;53.176;6.002;2022-09-12T15:30:10;10.38;;;8.60;;
54517;SDS011;40423;53.176;6.002;2022-09-12T15:32:37;8.68;;;7.70;;
54517;SDS011;40423;53.176;6.002;2022-09-12T15:35:25;9.38;;;8.38;;
54517;SDS011;40423;53.176;6.002;2022-09-12T15:37:52;9.70;;;8.00;;
54517;SDS011;40423;53.176;6.002;2022-09-12T15:40:18;11.93;;;9.27;;
54517;SDS011;40423;53.176;6.002;2022-09-12T15:42:44;9.88;;;8.70;;
54517;SDS011;40423;53.176;6.002;2022-09-12T15:47:36;12.45;;;10.02;;
54517;SDS011;40423;53.176;6.002;2022-09-12T15:50:01;13.20;;;10.30;;
54517;SDS011;40423;53.176;6.002;2022-09-12T15:52:27;11.30;;;8.95;;
54517;SDS011;40423;53.176;6.002;2022-09-12T15:54:53;10.32;;;9.20;;
54517;SDS011;40423;53.176;6.002;2022-09-12T15:57:18;11.30;;;9.98;;
54517;SDS011;40423;53.176;6.002;2022-09-12T15:59:44;10.55;;;9.45;;
54517;SDS011;40423;53.176;6.002;2022-09-12T16:02:10;13.52;;;9.95;;
54517;SDS011;40423;53.176;6.002;2022-09-12T16:04:36;12.23;;;9.45;;
54517;SDS011;40423;53.176;6.002;2022-09-12T16:07:02;11.02;;;9.50;;
54517;SDS011;40423;53.176;6.002;2022-09-12T16:09:28;10.73;;;8.15;;
54517;SDS011;40423;53.176;6.002;2022-09-12T16:11:53;12.90;;;9.05;;
54517;SDS011;40423;53.176;6.002;2022-09-12T16:14:19;10.30;;;9.23;;
54517;SDS011;40423;53.176;6.002;2022-09-12T16:16:50;10.55;;;8.07;;
54517;SDS011;40423;53.176;6.002;2022-09-12T16:19:18;14.50;;;9.50;;
54517;SDS011;40423;53.176;6.002;2022-09-12T16:21:44;12.60;;;10.98;;
54517;SDS011;40423;53.176;6.002;2022-09-12T16:24:10;10.75;;;9.55;;
54517;SDS011;40423;53.176;6.002;2022-09-12T16:26:36;11.90;;;9.60;;
54517;SDS011;40423;53.176;6.002;2022-09-12T16:29:02;10.90;;;9.48;;
54517;SDS011;40423;53.176;6.002;2022-09-12T16:31:28;14.57;;;10.60;;
54517;SDS011;40423;53.176;6.002;2022-09-12T16:33:54;12.00;;;9.75;;
54517;SDS011;40423;53.176;6.002;2022-09-12T16:36:20;11.38;;;10.30;;
54517;SDS011;40423;53.176;6.002;2022-09-12T16:38:47;12.52;;;10.40;;
54517;SDS011;40423;53.176;6.002;2022-09-12T16:41:15;12.32;;;9.88;;
54517;SDS011;40423;53.176;6.002;2022-09-12T16:43:42;14.30;;;11.60;;
54517;SDS011;40423;53.176;6.002;2022-09-12T16:46:09;12.60;;;10.88;;
54517;SDS011;40423;53.176;6.002;2022-09-12T16:48:40;11.02;;;9.93;;
54517;SDS011;40423;53.176;6.002;2022-09-12T16:51:09;11.02;;;9.75;;
54517;SDS011;40423;53.176;6.002;2022-09-12T16:53:35;13.07;;;10.30;;
54517;SDS011;40423;53.176;6.002;2022-09-12T16:56:02;11.75;;;9.55;;
54517;SDS011;40423;53.176;6.002;2022-09-12T16:58:33;13.38;;;10.25;;
54517;SDS011;40423;53.176;6.002;2022-09-12T17:01:04;11.32;;;9.55;;
54517;SDS011;40423;53.176;6.002;2022-09-12T17:03:31;10.25;;;8.80;;
54517;SDS011;40423;53.176;6.002;2022-09-12T17:06:02;10.55;;;9.45;;
54517;SDS011;40423;53.176;6.002;2022-09-12T17:08:28;10.77;;;9.52;;
54517;SDS011;40423;53.176;6.002;2022-09-12T17:11:00;10.32;;;8.65;;
54517;SDS011;40423;53.176;6.002;2022-09-12T17:13:28;9.98;;;8.77;;
54517;SDS011;40423;53.176;6.002;2022-09-12T17:15:54;11.70;;;9.15;;
54517;SDS011;40423;53.176;6.002;2022-09-12T17:18:20;12.57;;;8.68;;
54517;SDS011;40423;53.176;6.002;2022-09-12T17:20:46;11.98;;;8.85;;
54517;SDS011;40423;53.176;6.002;2022-09-12T17:23:12;10.93;;;8.77;;
54517;SDS011;40423;53.176;6.002;2022-09-12T17:25:38;11.00;;;8.80;;
54517;SDS011;40423;53.176;6.002;2022-09-12T17:28:04;11.32;;;9.73;;
54517;SDS011;40423;53.176;6.002;2022-09-12T17:30:33;17.20;;;10.48;;
54517;SDS011;40423;53.176;6.002;2022-09-12T17:32:59;10.90;;;9.35;;
54517;SDS011;40423;53.176;6.002;2022-09-12T17:35:25;11.32;;;8.73;;
54517;SDS011;40423;53.176;6.002;2022-09-12T17:37:51;12.20;;;8.80;;
54517;SDS011;40423;53.176;6.002;2022-09-12T17:40:17;10.73;;;9.73;;